Time;durP1;ratioP1;P1;durP2;ratioP2;P2;SDS_P1;SDS_P2;PMS_P1;PMS_P2;Temp;Humidity;BMP_temperature;BMP_pressure;BME280_temperature;BME280_humidity;BME280_pressure;Samples;Min_cycle;Max_cycle;Signal;HPM_P1;HPM_P2
2022/07/23 01:40:36;;;;;;;;;;;;;;;;;;;;;
2022/07/23 01:43:58;;;;;;;;;;;;;;;;;;;;;
2022/07/23 01:47:31;;;;;;;;;18.33;17.00;;;;;21.55;100.00;99968.66;6335541;22;74278;-95
2022/07/23 01:50:52;;;;;;;;;;;;;;;;;;;;;
2022/07/23 02:30:51;;;;;;;;;15.67;14.67;;;;;21.49;100.00;99984.75;6302183;22;45764;-96
2022/07/23 02:34:03;;;;;;;;;15.67;14.33;;;;;21.46;100.00;99986.59;6284167;22;47400;-96
2022/07/23 02:37:25;;;;;;;;;;;;;;;;;;;;;
2022/07/23 02:40:08;;;;;;;;;18.00;17.33;;;;;21.54;100.00;100020.28;6209137;22;68429;-95
2022/07/23 02:43:05;;;;;;;;;16.33;16.33;;;;;21.46;100.00;100005.28;6186488;22;45240;-96
2022/07/23 02:53:00;;;;;;;;;18.00;16.00;;;;;21.41;100.00;100003.56;5947808;23;45421;-95
2022/07/23 02:55:41;;;;;;;;;12.00;11.67;;;;;21.41;100.00;100002.66;5950193;23;45411;-96
2022/07/23 02:58:37;;;;;;;;;;;;;;;;;;;;;
2022/07/23 03:08:02;;;;;;;;;13.67;12.67;;;;;21.39;100.00;100042.69;6325895;22;45508;-96
2022/07/23 03:13:37;;;;;;;;;17.00;14.33;;;;;21.26;100.00;100031.28;6320834;22;45366;-95
2022/07/23 03:16:53;;;;;;;;;;;;;;;;;;;;;
2022/07/23 03:19:21;;;;;;;;;15.00;11.33;;;;;21.28;100.00;100050.84;6209681;22;69123;-94
2022/07/23 03:21:56;;;;;;;;;12.67;12.00;;;;;21.24;100.00;100043.75;6184743;22;46719;-95
2022/07/23 03:25:25;;;;;;;;;;;;;;;;;;;;;
2022/07/23 03:28:24;;;;;;;;;15.00;12.33;;;;;21.11;100.00;100045.66;6078662;23;67995;-96
2022/07/23 03:34:07;;;;;;;;;13.33;12.00;;;;;21.12;100.00;100050.13;6054697;23;46427;-96
2022/07/23 03:37:22;;;;;;;;;;;;;;;;;;;;;
2022/07/23 03:43:33;;;;;;;;;15.00;13.33;;;;;21.09;100.00;100052.81;6356694;22;45048;-96
2022/07/23 03:46:44;;;;;;;;;18.67;14.33;;;;;21.03;100.00;100045.72;6364262;22;45464;-96
2022/07/23 03:49:43;;;;;;;;;16.67;13.67;;;;;21.05;100.00;100054.63;6359913;22;44734;-96
2022/07/23 03:52:22;;;;;;;;;16.00;13.00;;;;;21.06;100.00;100050.16;6335180;22;44823;-95
2022/07/23 03:54:50;;;;;;;;;16.00;12.67;;;;;21.01;100.00;100052.88;6281149;22;45151;-96
2022/07/23 03:57:18;;;;;;;;;17.00;14.00;;;;;21.02;100.00;100048.44;6279228;22;47429;-96
2022/07/23 03:59:53;;;;;;;;;15.67;12.00;;;;;21.02;100.00;100054.66;6305884;22;45348;-95
2022/07/23 04:10:07;;;;;;;;;18.00;15.00;;;;;20.95;100.00;100056.44;6329987;22;45586;-96
2022/07/23 04:13:32;;;;;;;;;16.33;13.33;;;;;20.93;100.00;100055.56;6362962;22;44823;-96
2022/07/23 04:16:03;;;;;;;;;17.00;14.00;;;;;21.12;100.00;100090.13;6334037;22;44770;-96
2022/07/23 06:37:59;;;;;;;;;31.33;30.00;;;;;22.20;100.00;100146.84;6296279;22;46214;-88
2022/07/23 06:40:24;;;;;;;;;37.67;31.00;;;;;22.25;100.00;100149.47;6279350;22;45321;-94
2022/07/23 06:42:49;;;;;;;;;28.00;26.33;;;;;22.24;100.00;100150.38;6277724;22;48493;-88
2022/07/23 06:45:15;;;;;;;;;35.33;29.00;;;;;22.25;100.00;100147.69;6304890;22;45269;-90
2022/07/23 06:47:41;;;;;;;;;40.33;32.00;;;;;22.28;100.00;100153.00;6277525;22;45244;-88
2022/07/23 06:50:07;;;;;;;;;32.33;29.33;;;;;22.30;100.00;100153.84;6305221;22;45171;-88
2022/07/23 06:52:32;;;;;;;;;43.67;32.67;;;;;22.33;100.00;100147.59;6276455;22;47586;-89
2022/07/23 06:54:57;;;;;;;;;34.33;31.33;;;;;22.35;100.00;100153.78;6276655;22;47621;-89
2022/07/23 06:57:25;;;;;;;;;40.33;29.33;;;;;22.40;100.00;100156.41;6306018;22;45282;-89
2022/07/23 06:59:50;;;;;;;;;40.00;31.00;;;;;22.45;100.00;100162.56;6277997;22;45464;-93
2022/07/23 07:02:16;;;;;;;;;39.33;31.00;;;;;22.42;100.00;100154.63;6307097;22;45328;-90
2022/07/23 07:04:41;;;;;;;;;35.33;29.33;;;;;22.42;100.00;100167.97;6305161;22;54724;-91
2022/07/23 07:07:06;;;;;;;;;42.67;34.00;;;;;22.41;100.00;100171.53;6307118;22;45337;-95
2022/07/23 07:09:32;;;;;;;;;38.33;30.00;;;;;22.40;100.00;100173.31;6279092;22;45495;-89
2022/07/23 07:11:57;;;;;;;;;43.00;34.00;;;;;22.32;100.00;100173.44;6304794;22;46260;-88
2022/07/23 07:14:22;;;;;;;;;41.00;34.00;;;;;22.33;100.00;100177.00;6305425;22;45306;-90
2022/07/23 07:16:48;;;;;;;;;39.33;32.00;;;;;22.33;100.00;100185.91;6307054;22;45290;-95
2022/07/23 07:19:13;;;;;;;;;44.00;34.00;;;;;22.30;100.00;100180.59;6278826;22;45587;-94
2022/07/23 07:21:38;;;;;;;;;42.00;33.00;;;;;22.34;100.00;100194.81;6277300;22;54029;-92
2022/07/23 07:24:04;;;;;;;;;44.00;33.75;;;;;22.35;100.00;100190.31;6277990;22;45877;-92
2022/07/23 07:26:30;;;;;;;;;41.33;34.00;;;;;22.42;100.00;100194.72;6278343;22;45710;-93
2022/07/23 07:28:56;;;;;;;;;34.67;31.00;;;;;22.45;100.00;100191.97;6278362;22;45339;-95
2022/07/23 07:31:21;;;;;;;;;37.67;33.00;;;;;22.46;100.00;100203.56;6277555;22;47204;-94
2022/07/23 07:33:47;;;;;;;;;46.00;34.50;;;;;22.51;100.00;100191.91;6276744;22;55724;-93
2022/07/23 07:36:12;;;;;;;;;42.00;33.67;;;;;22.54;100.00;100197.22;6278481;22;45312;-93
2022/07/23 07:38:38;;;;;;;;;45.33;32.00;;;;;22.58;100.00;100183.78;6277954;22;45499;-93
2022/07/23 07:41:03;;;;;;;;;40.67;31.67;;;;;22.64;100.00;100181.03;6278071;22;48442;-94
2022/07/23 07:43:29;;;;;;;;;35.00;30.33;;;;;22.64;100.00;100173.00;6278004;22;45858;-94
2022/07/23 07:45:54;;;;;;;;;36.67;31.00;;;;;22.73;100.00;100180.94;6278566;22;45339;-95
2022/07/23 07:48:19;;;;;;;;;36.33;30.33;;;;;22.81;100.00;100179.94;6277683;22;45615;-94
2022/07/23 07:50:44;;;;;;;;;42.67;32.00;;;;;22.87;100.00;100179.84;6277282;22;58246;-93
2022/07/23 07:53:10;;;;;;;;;40.67;31.00;;;;;22.95;100.00;100183.28;6278005;22;45452;-94
2022/07/23 07:55:35;;;;;;;;;37.67;32.00;;;;;23.02;100.00;100161.78;6278709;22;45940;-96
2022/07/23 07:58:01;;;;;;;;;38.33;31.00;;;;;23.12;100.00;100163.41;6277270;22;45294;-87
2022/07/23 08:00:26;;;;;;;;;38.00;33.67;;;;;23.22;100.00;100156.97;6303170;22;46660;-87
2022/07/23 08:02:53;;;;;;;;;35.00;32.00;;;;;23.33;100.00;100154.13;6301875;22;45655;-86
2022/07/23 08:05:24;;;;;;;;;38.67;33.00;;;;;23.41;100.00;100155.78;6301992;22;45284;-87
2022/07/23 08:07:50;;;;;;;;;41.33;34.33;;;;;23.42;100.00;100149.53;6303132;22;45314;-86
2022/07/23 08:10:15;;;;;;;;;39.67;31.33;;;;;23.43;100.00;100151.28;6303326;22;46061;-86
2022/07/23 08:12:46;;;;;;;;;39.33;32.00;;;;;23.44;100.00;100147.69;6303023;22;45416;-86
2022/07/23 08:15:13;;;;;;;;;40.67;33.67;;;;;23.52;100.00;100150.25;6303332;22;45386;-87
2022/07/23 08:17:39;;;;;;;;;43.33;32.00;;;;;23.54;100.00;100152.00;6302274;22;45325;-84
2022/07/23 08:20:06;;;;;;;;;35.33;30.67;;;;;23.59;100.00;100164.41;6302255;22;45985;-84
2022/07/23 08:22:51;;;;;;;;;38.00;29.33;;;;;23.69;100.00;100162.44;6299223;22;45359;-84
2022/07/23 08:25:32;;;;;;;;;35.67;31.33;;;;;23.81;100.00;100164.03;6305957;22;45532;-85
2022/07/23 08:27:59;;;;;;;;;32.00;30.33;;;;;23.91;100.00;100170.97;6302932;22;45529;-85
2022/07/23 08:30:26;;;;;;;;;37.00;30.00;;;;;23.99;100.00;100177.03;6274000;22;47021;-85
2022/07/23 08:33:00;;;;;;;;;33.00;29.00;;;;;24.07;100.00;100166.16;6301183;22;45419;-86
2022/07/23 08:35:36;;;;;;;;;32.33;28.00;;;;;24.11;100.00;100175.94;6302834;22;45317;-86
2022/07/23 08:38:05;;;;;;;;;34.67;30.67;;;;;24.18;100.00;100183.81;6275152;22;45375;-85
2022/07/23 08:40:33;;;;;;;;;36.00;32.33;;;;;24.21;100.00;100178.41;6302459;22;45344;-86
2022/07/23 08:42:59;;;;;;;;;33.67;30.33;;;;;24.20;100.00;100166.78;6302477;22;45823;-85
2022/07/23 08:45:26;;;;;;;;;35.67;30.67;;;;;24.27;100.00;100177.44;6274953;22;45355;-84
2022/07/23 08:48:00;;;;;;;;;35.00;29.67;;;;;24.37;100.00;100178.13;6301528;22;45834;-85
2022/07/23 08:50:26;;;;;;;;;40.67;33.00;;;;;24.48;100.00;100184.13;6274145;22;48142;-85
2022/07/23 08:52:53;;;;;;;;;38.67;29.33;;;;;24.54;100.00;100183.09;6303078;22;45365;-85
2022/07/23 08:55:20;;;;;;;;;37.00;30.67;;;;;24.57;100.00;100185.72;6274856;22;45401;-83
2022/07/23 08:57:51;;;;;;;;;36.33;31.67;;;;;24.54;100.00;100196.50;6299132;22;45615;-83
2022/07/23 09:00:17;;;;;;;;;39.67;30.33;;;;;24.43;100.00;100192.28;6302990;22;45339;-84
2022/07/23 09:02:44;;;;;;;;;30.67;26.33;;;;;24.35;100.00;100188.91;6301846;22;45301;-83
2022/07/23 09:05:11;;;;;;;;;29.33;28.00;;;;;24.32;100.00;100189.84;6272656;22;45321;-83
2022/07/23 09:07:57;;;;;;;;;34.67;29.67;;;;;24.33;100.00;100194.28;6302954;22;45277;-83
2022/07/23 09:10:22;;;;;;;;;38.67;31.00;;;;;24.40;100.00;100195.03;6302378;22;47219;-83
2022/07/23 09:12:48;;;;;;;;;30.67;27.33;;;;;24.52;100.00;100196.56;6301458;22;63996;-83
2022/07/23 09:15:13;;;;;;;;;34.33;30.67;;;;;24.65;100.00;100193.59;6274136;22;46670;-83
2022/07/23 09:17:40;;;;;;;;;29.67;26.67;;;;;24.78;100.00;100189.72;6301209;22;54811;-83
2022/07/23 09:20:14;;;;;;;;;28.33;27.00;;;;;24.95;100.00;100190.22;6302258;22;46245;-83
2022/07/23 09:22:47;;;;;;;;;34.67;30.33;;;;;25.09;100.00;100188.16;6300536;22;45341;-83
2022/07/23 09:25:16;;;;;;;;;28.33;25.67;;;;;25.24;100.00;100202.09;6303321;22;45310;-83
2022/07/23 09:27:55;;;;;;;;;29.33;28.00;;;;;25.37;100.00;100191.94;6303332;22;45305;-83
2022/07/23 09:30:29;;;;;;;;;33.67;28.00;;;;;25.54;100.00;100193.28;6300434;22;45335;-83
2022/07/23 09:33:15;;;;;;;;;37.33;28.67;;;;;25.76;100.00;100185.59;6300067;22;45301;-83
2022/07/23 09:35:52;;;;;;;;;31.33;28.67;;;;;25.89;100.00;100190.63;6302126;22;45628;-83
2022/07/23 09:38:19;;;;;;;;;28.33;25.33;;;;;25.97;100.00;100193.97;6302456;22;45357;-87
2022/07/23 09:40:45;;;;;;;;;38.67;30.00;;;;;26.11;100.00;100196.25;6274661;22;47481;-87
2022/07/23 09:43:12;;;;;;;;;28.00;26.00;;;;;26.15;100.00;100210.50;6302793;22;45406;-87
2022/07/23 09:45:39;;;;;;;;;28.33;28.00;;;;;26.21;100.00;100217.50;6274722;22;45514;-85
2022/07/23 09:48:16;;;;;;;;;26.33;26.33;;;;;26.34;100.00;100218.03;6302580;22;45322;-85
2022/07/23 09:50:43;;;;;;;;;33.33;30.00;;;;;26.50;100.00;100220.28;6273717;22;46111;-86
2022/07/23 09:53:08;;;;;;;;;25.67;22.33;;;;;26.66;100.00;100231.47;6272753;22;45251;-86
2022/07/23 09:55:39;;;;;;;;;31.33;28.00;;;;;26.84;100.00;100231.84;6302714;22;45324;-86
2022/07/23 09:58:09;;;;;;;;;26.67;25.00;;;;;26.97;100.00;100218.88;6302880;22;45305;-86
2022/07/23 10:00:35;;;;;;;;;32.00;26.33;;;;;27.14;100.00;100212.09;6274337;22;47359;-86
2022/07/23 10:03:02;;;;;;;;;27.67;24.33;;;;;27.29;100.00;100200.78;6301865;22;45845;-86
2022/07/23 10:05:29;;;;;;;;;27.00;24.67;;;;;27.39;100.00;100209.47;6303986;22;45300;-84
2022/07/23 10:07:54;;;;;;;;;30.67;26.67;;;;;27.42;100.00;100222.81;6306569;22;45259;-84
2022/07/23 10:10:22;;;;;;;;;28.33;25.33;;;;;27.48;100.00;100228.91;6274649;22;45797;-84
2022/07/23 10:15:16;;;;;;;;;28.33;26.67;;;;;27.41;100.00;100236.34;6302726;22;45310;-84
2022/07/23 10:17:41;;;;;;;;;30.33;28.33;;;;;27.47;100.00;100232.56;6300773;22;45287;-84
2022/07/23 10:20:06;;;;;;;;;27.67;26.67;;;;;27.56;100.00;100226.84;6301348;22;46010;-84
2022/07/23 10:22:38;;;;;;;;;25.00;23.67;;;;;27.73;100.00;100244.25;6301992;22;45309;-84
2022/07/23 10:25:28;;;;;;;;;25.67;23.33;;;;;28.02;100.00;100252.25;6302535;22;45412;-84
2022/07/23 10:28:40;;;;;;;;;25.33;23.00;;;;;28.91;100.00;100231.91;6301591;22;45238;-86
2022/07/23 10:31:22;;;;;;;;;23.00;23.00;;;;;29.86;100.00;100229.81;6175112;23;46338;-86
2022/07/23 10:34:02;;;;;;;;;26.67;24.00;;;;;30.26;100.00;100256.88;6174445;23;45323;-86
2022/07/23 10:36:39;;;;;;;;;28.33;21.33;;;;;30.85;100.00;100253.28;6176741;23;45339;-87
2022/07/23 10:39:07;;;;;;;;;33.67;27.67;;;;;31.14;100.00;100270.94;6175550;23;45549;-87
2022/07/23 10:41:38;;;;;;;;;29.00;25.00;;;;;31.09;100.00;100274.78;6150625;23;52925;-87
2022/07/23 10:44:11;;;;;;;;;25.67;22.00;;;;;30.76;100.00;100316.03;6176489;23;45461;-87
2022/07/23 10:49:32;;;;;;;;;31.33;25.00;;;;;29.88;100.00;100322.59;6175377;23;45414;-87
2022/07/23 10:52:18;;;;;;;;;41.50;33.50;;;;;29.58;100.00;100333.72;6175459;23;45597;-86
2022/07/23 10:54:46;;;;;;;;;39.33;34.33;;;;;29.36;100.00;100335.47;6177760;23;45295;-87
2022/07/23 10:57:13;;;;;;;;;30.33;28.33;;;;;29.13;100.00;100328.28;6177320;23;45403;-86
2022/07/23 11:00:00;;;;;;;;;11.67;8.00;;;;;29.17;100.00;100336.22;6177536;23;45551;-85
2022/07/23 11:02:29;;;;;;;;;22.67;21.33;;;;;29.49;100.00;100325.06;6178172;23;45655;-85
2022/07/23 11:05:00;;;;;;;;;27.33;24.00;;;;;29.59;100.00;100317.44;6233800;22;45317;-86
2022/07/23 11:07:26;;;;;;;;;25.67;21.00;;;;;29.55;100.00;100342.84;6303940;22;45360;-84
2022/07/23 11:09:53;;;;;;;;;27.00;22.33;;;;;29.39;100.00;100353.41;6275035;22;45338;-85
2022/07/23 11:12:28;;;;;;;;;26.00;23.00;;;;;29.17;100.00;100365.94;6303209;22;45601;-85
2022/07/23 11:15:08;;;;;;;;;26.33;24.00;;;;;28.95;100.00;100363.16;6303462;22;45730;-84
2022/07/23 11:17:50;;;;;;;;;24.00;21.33;;;;;28.80;100.00;100376.31;6303154;22;45333;-84
2022/07/23 11:20:18;;;;;;;;;25.67;22.33;;;;;28.69;100.00;100365.03;6298400;22;45280;-85
2022/07/23 11:22:43;;;;;;;;;23.67;21.00;;;;;28.62;100.00;100367.09;6302799;22;45376;-85
2022/07/23 11:25:13;;;;;;;;;26.33;25.33;;;;;28.49;100.00;100355.84;6275057;22;45377;-85
2022/07/23 11:27:44;;;;;;;;;25.00;22.67;;;;;28.36;100.00;100352.69;6275270;22;45420;-84
2022/07/23 11:30:27;;;;;;;;;28.33;25.00;;;;;28.40;100.00;100352.50;6303711;22;45340;-85
2022/07/23 11:33:09;;;;;;;;;22.00;21.00;;;;;28.46;100.00;100329.84;6302681;22;46464;-85
2022/07/23 11:35:36;;;;;;;;;24.33;22.33;;;;;28.48;100.00;100338.78;6302590;22;45317;-85
2022/07/23 11:38:22;;;;;;;;;28.67;23.67;;;;;28.42;100.00;100363.28;6302281;22;45313;-86
2022/07/23 11:40:50;;;;;;;;;28.00;25.00;;;;;28.31;100.00;100377.13;6301464;22;45312;-86
2022/07/23 11:43:16;;;;;;;;;26.67;24.67;;;;;28.17;100.00;100364.13;6305839;22;46681;-90
2022/07/23 11:45:44;;;;;;;;;28.00;27.00;;;;;28.13;100.00;100365.16;6274253;22;45418;-90
2022/07/23 11:48:17;;;;;;;;;27.67;26.33;;;;;28.06;100.00;100354.63;6274855;22;45369;-91
2022/07/23 11:50:42;;;;;;;;;29.67;28.00;;;;;27.96;100.00;100350.47;6274675;22;45433;-90
2022/07/23 11:53:08;;;;;;;;;30.00;24.67;;;;;27.98;100.00;100349.47;6302714;22;46420;-92
2022/07/23 11:55:33;;;;;;;;;26.33;24.33;;;;;28.02;100.00;100350.25;6304970;22;45325;-90
2022/07/23 11:57:59;;;;;;;;;28.33;26.33;;;;;28.02;100.00;100347.53;6304173;22;45414;-90
2022/07/23 12:00:26;;;;;;;;;32.00;24.33;;;;;28.16;100.00;100335.41;6275182;22;45243;-89
2022/07/23 12:02:58;;;;;;;;;27.00;24.00;;;;;28.49;100.00;100331.56;6271679;22;47043;-93
2022/07/23 12:05:35;;;;;;;;;25.00;25.00;;;;;28.99;100.00;100332.41;6274228;22;45700;-92
2022/07/23 12:08:02;;;;;;;;;25.00;20.67;;;;;29.41;100.00;100346.09;6305165;22;45285;-95
2022/07/23 12:10:36;;;;;;;;;23.33;20.33;;;;;29.58;100.00;100350.84;6277845;22;45297;-95
2022/07/23 12:13:11;;;;;;;;;24.33;23.00;;;;;29.68;100.00;100367.56;6303613;22;45725;-90
2022/07/23 12:15:48;;;;;;;;;31.33;25.00;;;;;29.94;100.00;100360.22;6275500;22;45504;-90
2022/07/23 12:18:20;;;;;;;;;23.33;22.00;;;;;30.23;100.00;100373.41;6303639;22;45639;-90
2022/07/23 12:20:48;;;;;;;;;20.00;20.00;;;;;30.42;100.00;100381.63;6275079;22;45814;-89
2022/07/23 12:23:16;;;;;;;;;23.00;22.00;;;;;31.13;100.00;100367.66;6275454;22;49102;-92
2022/07/23 12:25:44;;;;;;;;;25.67;23.67;;;;;31.25;100.00;100393.28;6275212;22;45324;-90
2022/07/23 12:28:15;;;;;;;;;24.00;23.33;;;;;31.15;100.00;100417.22;6276258;22;45236;-90
2022/07/23 12:30:46;;;;;;;;;22.00;21.67;;;;;30.94;100.00;100443.50;6304144;22;45434;-90
2022/07/23 12:33:21;;;;;;;;;24.33;22.67;;;;;30.85;100.00;100423.06;6276094;22;48255;-90
2022/07/23 12:35:47;;;;;;;;;27.33;23.33;;;;;30.70;100.00;100432.78;6275639;22;45322;-92
2022/07/23 12:38:24;;;;;;;;;23.33;22.00;;;;;30.54;100.00;100445.19;6275896;22;45411;-83
2022/07/23 12:40:55;;;;;;;;;29.67;24.67;;;;;30.50;100.00;100427.31;6304060;22;45312;-83
2022/07/23 12:43:29;;;;;;;;;22.00;21.00;;;;;30.65;100.00;100405.91;6301999;22;46235;-83
2022/07/23 12:46:06;;;;;;;;;24.00;20.33;;;;;31.84;100.00;100383.25;6303366;22;45292;-83
2022/07/23 12:48:36;;;;;;;;;22.00;22.00;;;;;34.15;100.00;100344.44;6302731;22;45406;-83
2022/07/23 12:51:05;;;;;;;;;25.00;23.00;;;;;35.59;100.00;100399.16;6303187;22;45222;-83
2022/07/23 12:53:39;;;;;;;;;17.67;17.33;;;;;35.55;100.00;100492.13;6303179;22;46176;-83
2022/07/23 12:56:08;;;;;;;;;21.00;20.00;;;;;34.98;100.00;100526.56;6303682;22;45534;-83
2022/07/23 12:58:51;;;;;;;;;20.00;19.33;;;;;34.33;100.00;100527.66;6275705;22;45305;-83
2022/07/23 13:01:23;;;;;;;;;23.00;21.33;;;;;34.82;100.00;100496.66;6303360;22;45305;-83
2022/07/23 13:04:01;;;;;;;;;24.33;22.00;;;;;36.60;100.00;100459.75;6274093;22;47305;-83
2022/07/23 13:06:29;;;;;;;;;23.33;21.67;;;;;38.28;100.00;100531.69;6303731;22;45332;-83
2022/07/23 13:08:54;;;;;;;;;23.00;21.33;;;;;39.85;98.48;101274.88;6303330;22;45344;-84
2022/07/23 13:11:20;;;;;;;;;19.33;18.67;;;;;41.78;97.57;101382.63;6303791;22;45286;-83
2022/07/23 13:13:45;;;;;;;;;17.67;16.67;;;;;43.63;92.69;101488.28;6303096;22;45857;-83
2022/07/23 13:16:10;;;;;;;;;19.33;18.33;;;;;44.97;85.96;101563.44;6302536;22;45309;-84
2022/07/23 13:18:36;;;;;;;;;25.33;19.33;;;;;45.15;80.85;101615.47;6302384;22;46612;-83
2022/07/23 13:21:02;;;;;;;;;24.00;20.67;;;;;44.29;77.58;101632.06;6303412;22;45622;-84
2022/07/23 13:23:28;;;;;;;;;16.67;15.33;;;;;43.30;75.83;101653.06;6274924;22;47464;-84
2022/07/23 13:25:54;;;;;;;;;21.00;19.33;;;;;42.53;75.46;101653.56;6303381;22;45313;-83
2022/07/23 13:28:21;;;;;;;;;21.67;20.00;;;;;41.81;75.42;101645.16;6275254;22;45428;-82
2022/07/23 13:30:49;;;;;;;;;19.00;18.00;;;;;42.76;76.87;101637.06;6303142;22;45674;-83
2022/07/23 13:33:18;;;;;;;;;20.33;20.00;;;;;44.79;76.02;101639.88;6302960;22;45332;-83
2022/07/23 13:35:44;;;;;;;;;21.33;20.33;;;;;47.12;72.32;101667.53;6302168;22;45281;-83
2022/07/23 13:38:09;;;;;;;;;21.00;20.00;;;;;49.53;70.41;101678.28;6274670;22;45326;-83
2022/07/23 13:40:38;;;;;;;;;16.00;16.00;;;;;51.68;65.82;101681.25;6275460;22;45497;-83
2022/07/23 13:43:05;;;;;;;;;20.00;20.00;;;;;53.64;62.67;101698.66;6302912;22;45300;-83
2022/07/23 13:45:30;;;;;;;;;18.33;18.33;;;;;55.05;55.76;101718.94;6275080;22;45316;-83
2022/07/23 13:47:56;;;;;;;;;16.33;15.33;;;;;55.92;54.83;101695.06;6302343;22;45337;-83
2022/07/23 13:50:21;;;;;;;;;18.00;17.67;;;;;56.77;52.84;101690.94;6274029;22;45488;-85
2022/07/23 13:52:46;;;;;;;;;19.67;18.67;;;;;57.13;49.36;101706.47;6275120;22;48376;-83
2022/07/23 13:55:12;;;;;;;;;20.00;15.67;;;;;57.38;49.12;101700.06;6302062;22;60888;-83
2022/07/23 13:57:37;;;;;;;;;18.67;18.00;;;;;57.66;46.07;101700.81;6303381;22;45552;-84
2022/07/23 14:00:06;;;;;;;;;15.00;14.67;;;;;57.85;45.38;101700.91;6303177;22;45271;-84
2022/07/23 14:02:32;;;;;;;;;15.33;15.33;;;;;57.98;45.28;101702.78;6302513;22;46053;-84
2022/07/23 14:04:57;;;;;;;;;16.33;15.00;;;;;58.15;44.01;101691.75;6298574;22;45704;-84
2022/07/23 14:07:22;;;;;;;;;15.33;13.33;;;;;58.22;44.25;101682.41;6301469;22;45369;-84
2022/07/23 14:09:48;;;;;;;;;15.00;13.67;;;;;58.23;41.49;101684.13;6303264;22;45257;-84
2022/07/23 14:12:14;;;;;;;;;16.67;14.67;;;;;58.18;41.02;101683.91;6302709;22;45355;-84
2022/07/23 14:14:39;;;;;;;;;14.67;14.00;;;;;58.10;41.99;101682.25;6302717;22;45342;-84
2022/07/23 14:17:05;;;;;;;;;15.33;15.33;;;;;57.70;41.45;101682.34;6302578;22;45293;-84
2022/07/23 14:19:30;;;;;;;;;17.00;16.33;;;;;57.22;41.25;101678.88;6302502;22;45650;-84
2022/07/23 14:21:56;;;;;;;;;14.33;14.33;;;;;56.98;39.95;101681.38;6302273;22;45619;-84
2022/07/23 14:24:21;;;;;;;;;16.00;16.00;;;;;56.75;40.03;101674.25;6302314;22;45306;-84
2022/07/23 14:26:46;;;;;;;;;18.00;15.33;;;;;56.66;41.18;101665.16;6303073;22;45343;-84
2022/07/23 14:29:12;;;;;;;;;14.00;13.67;;;;;56.48;40.69;101663.00;6303832;22;45338;-84
2022/07/23 14:31:37;;;;;;;;;15.00;13.67;;;;;56.44;40.05;101664.56;6303690;22;46293;-84
2022/07/23 14:34:03;;;;;;;;;16.00;14.67;;;;;56.41;40.47;101663.03;6303167;22;45636;-84
2022/07/23 14:36:28;;;;;;;;;17.33;16.67;;;;;56.34;40.67;101663.03;6303420;22;45313;-84
2022/07/23 14:38:53;;;;;;;;;16.33;16.33;;;;;56.21;41.15;101657.41;6304337;22;45320;-85
2022/07/23 14:41:19;;;;;;;;;13.00;13.00;;;;;56.01;39.91;101655.44;6303581;22;61186;-84
2022/07/23 14:43:44;;;;;;;;;15.67;15.67;;;;;55.63;40.00;101656.88;6300426;22;45620;-84
2022/07/23 14:46:11;;;;;;;;;13.00;13.00;;;;;55.21;40.21;101649.38;6301706;22;45316;-84
2022/07/23 14:48:37;;;;;;;;;15.00;13.67;;;;;54.83;39.88;101651.56;6302465;22;45530;-84
2022/07/23 14:51:03;;;;;;;;;14.33;14.33;;;;;54.32;40.17;101642.34;6299140;22;46278;-84
2022/07/23 14:53:29;;;;;;;;;15.33;13.33;;;;;53.93;40.49;101639.84;6273583;22;45705;-82
2022/07/23 14:55:56;;;;;;;;;12.00;11.67;;;;;53.62;40.43;101642.75;6305645;22;45730;-83
2022/07/23 14:58:22;;;;;;;;;14.33;13.00;;;;;53.32;41.19;101650.38;6303535;22;45299;-84
2022/07/23 15:00:48;;;;;;;;;13.00;13.00;;;;;52.43;40.15;101637.84;6275393;22;46352;-84
2022/07/23 15:03:13;;;;;;;;;17.33;13.00;;;;;50.74;40.54;101638.97;6302851;22;45313;-84
2022/07/23 15:05:39;;;;;;;;;12.67;12.00;;;;;48.72;41.11;101640.38;6303345;22;45309;-83
2022/07/23 15:08:04;;;;;;;;;13.67;13.67;;;;;46.72;41.97;101633.47;6303856;22;45308;-83
2022/07/23 15:10:29;;;;;;;;;12.00;11.00;;;;;44.99;43.58;101624.28;6302601;22;59877;-83
2022/07/23 15:12:55;;;;;;;;;13.00;11.67;;;;;43.50;44.80;101626.63;6303959;22;45355;-83
2022/07/23 15:15:20;;;;;;;;;11.67;11.67;;;;;42.23;46.17;101617.22;6303386;22;49032;-83
2022/07/23 15:17:46;;;;;;;;;11.67;11.67;;;;;41.06;47.11;101612.84;6302575;22;45300;-83
2022/07/23 15:20:11;;;;;;;;;12.00;11.00;;;;;40.01;48.68;101618.13;6302918;22;45449;-83
2022/07/23 15:22:37;;;;;;;;;13.33;13.33;;;;;39.07;49.48;101610.41;6303935;22;45238;-83
2022/07/23 15:25:02;;;;;;;;;14.00;12.67;;;;;38.28;50.77;101605.94;6303244;22;45165;-83
2022/07/23 15:27:28;;;;;;;;;12.00;12.00;;;;;37.56;51.75;101599.97;6304412;22;45295;-83
2022/07/23 15:29:54;;;;;;;;;11.67;11.67;;;;;36.94;52.39;101604.22;6303093;22;47961;-83
2022/07/23 15:32:19;;;;;;;;;11.33;11.33;;;;;36.34;53.57;101597.19;6303173;22;45257;-83
2022/07/23 15:34:44;;;;;;;;;12.67;12.67;;;;;35.82;54.60;101598.84;6274525;22;45334;-83
2022/07/23 15:37:10;;;;;;;;;11.00;11.00;;;;;35.32;55.79;101588.41;6303144;22;53181;-83
2022/07/23 15:39:35;;;;;;;;;12.67;12.33;;;;;34.87;56.66;101576.81;6302517;22;45601;-83
2022/07/23 15:42:02;;;;;;;;;34.33;29.67;;;;;34.44;57.79;101578.63;6303705;22;45324;-83
2022/07/23 15:44:28;;;;;;;;;14.00;13.00;;;;;34.07;58.62;101567.41;6303581;22;45339;-83
2022/07/23 15:46:54;;;;;;;;;11.67;11.67;;;;;33.76;59.32;101574.97;6303080;22;45282;-83
2022/07/23 15:49:19;;;;;;;;;13.33;12.33;;;;;33.48;59.75;101573.38;6303145;22;45486;-83
2022/07/23 15:51:45;;;;;;;;;14.33;13.00;;;;;33.20;60.35;101572.56;6302406;22;47189;-82
2022/07/23 15:54:10;;;;;;;;;13.00;13.00;;;;;32.91;60.97;101566.38;6303972;22;45221;-83
2022/07/23 15:56:35;;;;;;;;;13.00;12.33;;;;;32.64;61.56;101558.25;6303563;22;45242;-83
2022/07/23 15:59:01;;;;;;;;;14.33;12.67;;;;;32.36;62.53;101546.56;6303523;22;45941;-83
2022/07/23 16:01:29;;;;;;;;;12.00;10.00;;;;;32.14;62.81;101552.69;6302644;22;45356;-83
2022/07/23 16:03:54;;;;;;;;;11.00;11.00;;;;;31.94;62.91;101556.94;6303346;22;45300;-82
2022/07/23 16:06:20;;;;;;;;;10.00;10.00;;;;;31.71;63.41;101550.44;6274685;22;45515;-83
2022/07/23 16:08:45;;;;;;;;;10.00;10.00;;;;;31.54;64.35;101540.97;6303878;22;46669;-83
2022/07/23 16:11:11;;;;;;;;;13.00;11.67;;;;;31.38;64.31;101539.66;6302838;22;45416;-83
2022/07/23 16:13:36;;;;;;;;;12.00;10.33;;;;;31.24;65.04;101521.97;6304128;22;45561;-83
2022/07/23 16:16:02;;;;;;;;;9.33;9.33;;;;;31.08;65.49;101516.16;6302473;22;46644;-83
2022/07/23 16:18:30;;;;;;;;;11.33;10.33;;;;;30.93;66.16;101493.97;6302921;22;45340;-82
2022/07/23 16:20:55;;;;;;;;;12.67;12.00;;;;;30.82;65.96;101496.06;6274536;22;46186;-82
2022/07/23 16:23:20;;;;;;;;;11.67;11.33;;;;;30.66;67.38;101459.47;6303106;22;50367;-82
2022/07/23 16:25:46;;;;;;;;;10.67;10.00;;;;;30.55;67.33;101450.75;6303271;22;45391;-83
2022/07/23 16:28:11;;;;;;;;;10.67;10.67;;;;;30.39;67.34;101442.16;6275620;22;47925;-83
2022/07/23 16:30:38;;;;;;;;;11.33;10.00;;;;;30.27;67.98;101440.66;6303158;22;45220;-82
2022/07/23 16:33:04;;;;;;;;;14.00;13.33;;;;;30.14;68.81;101422.03;6302070;22;45409;-83
2022/07/23 16:35:29;;;;;;;;;16.00;16.00;;;;;30.02;68.72;101417.84;6302796;22;45464;-83
2022/07/23 16:37:54;;;;;;;;;13.67;12.00;;;;;29.92;69.59;101392.81;6274430;22;45941;-83
2022/07/23 16:40:20;;;;;;;;;13.33;13.33;;;;;29.84;69.29;101395.72;6300939;22;45337;-82
2022/07/23 16:42:45;;;;;;;;;11.00;9.67;;;;;29.75;70.16;101377.94;6302364;22;45268;-82
2022/07/23 16:45:11;;;;;;;;;12.33;11.00;;;;;29.69;70.70;101347.44;6302643;22;45321;-82